createdAt,value
2018-07-02T00:01:48.744Z,99.90
2018-07-02T00:04:16.282Z,99.90
2018-07-02T00:06:55.350Z,99.90
2018-07-02T00:09:22.891Z,99.90
2018-07-02T00:11:50.412Z,99.90
2018-07-02T00:14:18.007Z,99.90
2018-07-02T00:16:45.540Z,99.90
2018-07-02T00:19:13.200Z,99.90
2018-07-02T00:21:40.724Z,99.90
2018-07-02T00:24:08.272Z,99.90
2018-07-02T00:26:35.940Z,99.90
2018-07-02T00:29:03.476Z,99.90
2018-07-02T00:31:31.047Z,99.90
2018-07-02T00:33:58.879Z,99.90
2018-07-02T00:36:26.411Z,99.90
2018-07-02T00:38:53.919Z,99.90
2018-07-02T00:41:21.458Z,99.90
2018-07-02T00:43:48.960Z,99.90
2018-07-02T00:46:16.511Z,99.90
2018-07-02T00:48:44.026Z,99.90
2018-07-02T00:51:11.560Z,99.90
2018-07-02T00:53:39.071Z,99.90
2018-07-02T00:56:06.635Z,99.90
2018-07-02T00:58:34.165Z,99.90
2018-07-02T01:01:01.705Z,99.90
2018-07-02T01:03:29.227Z,99.90
2018-07-02T01:05:56.768Z,99.90
2018-07-02T01:08:24.276Z,99.90
2018-07-02T01:10:51.811Z,99.90
2018-07-02T01:13:19.371Z,99.90
2018-07-02T01:15:46.904Z,99.90
2018-07-02T01:18:14.420Z,99.90
2018-07-02T01:20:41.989Z,99.90
2018-07-02T01:23:09.498Z,99.90
2018-07-02T01:25:37.052Z,99.90
2018-07-02T01:28:04.599Z,99.90
2018-07-02T01:30:32.153Z,99.90
2018-07-02T01:32:59.684Z,99.90
2018-07-02T01:35:27.211Z,99.90
2018-07-02T01:37:54.752Z,99.90
2018-07-02T01:40:22.264Z,99.90
2018-07-02T01:42:49.810Z,99.90
2018-07-02T01:45:17.476Z,99.90
2018-07-02T01:47:45.029Z,99.90
2018-07-02T01:50:12.545Z,99.90
2018-07-02T01:52:40.093Z,99.90
2018-07-02T01:55:07.619Z,99.90
2018-07-02T01:57:35.159Z,99.90
2018-07-02T02:00:02.768Z,99.90
2018-07-02T02:02:30.324Z,99.90
2018-07-02T02:04:57.822Z,99.90
2018-07-02T02:07:25.397Z,99.90
2018-07-02T02:09:52.904Z,99.90
2018-07-02T02:12:20.480Z,99.90
2018-07-02T02:14:48.012Z,99.90
2018-07-02T02:17:15.536Z,99.90
2018-07-02T02:19:43.103Z,99.90
2018-07-02T02:22:10.632Z,99.90
2018-07-02T02:24:38.164Z,99.90
2018-07-02T02:27:05.712Z,99.90
2018-07-02T02:29:33.258Z,99.90
2018-07-02T02:32:00.783Z,99.90
2018-07-02T02:34:28.322Z,99.90
2018-07-02T02:36:55.843Z,99.90
2018-07-02T02:39:23.389Z,99.90
2018-07-02T02:41:50.925Z,99.90
2018-07-02T02:44:18.465Z,99.90
2018-07-02T02:46:45.976Z,99.90
2018-07-02T02:49:13.509Z,99.90
2018-07-02T02:51:41.031Z,99.90
2018-07-02T02:54:08.563Z,99.90
2018-07-02T02:56:36.278Z,99.90
2018-07-02T02:59:03.887Z,99.90
2018-07-02T03:01:31.424Z,99.90
2018-07-02T03:03:59.052Z,99.90
2018-07-02T03:06:26.595Z,99.90
2018-07-02T03:08:54.115Z,99.90
2018-07-02T03:11:21.668Z,99.90
2018-07-02T03:13:49.187Z,99.90
2018-07-02T03:16:16.748Z,99.90
2018-07-02T03:18:44.263Z,99.90
2018-07-02T03:21:12.712Z,99.90
2018-07-02T03:23:40.252Z,99.90
2018-07-02T03:26:07.816Z,99.90
2018-07-02T03:28:35.360Z,99.90
2018-07-02T03:31:02.928Z,99.90
2018-07-02T03:33:30.452Z,99.90
2018-07-02T03:38:25.440Z,99.90
2018-07-02T03:40:52.977Z,99.90
2018-07-02T03:43:20.503Z,99.90
2018-07-02T03:45:48.064Z,99.90
2018-07-02T03:48:15.592Z,99.90
2018-07-02T03:50:43.157Z,99.90
2018-07-02T03:53:10.704Z,99.90
2018-07-02T03:55:38.288Z,99.90
2018-07-02T03:58:05.852Z,99.90
2018-07-02T04:00:33.391Z,99.90
2018-07-02T04:05:28.391Z,99.90
2018-07-02T04:07:55.945Z,99.90
2018-07-02T04:10:23.456Z,99.90
2018-07-02T04:12:51.020Z,99.90
2018-07-02T04:15:18.528Z,99.90
2018-07-02T04:17:46.104Z,99.90
2018-07-02T04:20:13.887Z,99.90
2018-07-02T04:22:41.420Z,99.90
2018-07-02T04:25:09.012Z,99.90
2018-07-02T04:27:36.774Z,99.90
2018-07-02T04:30:04.436Z,99.90
2018-07-02T04:32:32.024Z,99.90
2018-07-02T04:34:59.628Z,99.90
2018-07-02T04:37:27.251Z,99.90
2018-07-02T04:39:54.792Z,99.90
2018-07-02T04:42:22.326Z,99.90
2018-07-02T04:44:49.997Z,99.90
2018-07-02T04:47:17.568Z,99.90
2018-07-02T04:49:45.136Z,99.90
2018-07-02T04:52:12.702Z,99.90
2018-07-02T04:54:40.372Z,99.90
2018-07-02T04:57:08.031Z,99.90
2018-07-02T04:59:35.679Z,99.90
2018-07-02T05:02:03.322Z,99.90
2018-07-02T05:04:30.836Z,99.90
2018-07-02T05:06:58.460Z,99.90
2018-07-02T05:09:26.017Z,99.90
2018-07-02T05:11:53.503Z,99.90
2018-07-02T05:14:21.023Z,99.90
2018-07-02T05:16:48.560Z,99.90
2018-07-02T05:19:16.096Z,99.90
2018-07-02T05:21:43.596Z,99.90
2018-07-02T05:24:11.118Z,99.90
2018-07-02T05:26:38.636Z,99.90
2018-07-02T05:29:06.281Z,99.90
2018-07-02T05:33:22.304Z,99.90
2018-07-02T05:35:49.885Z,99.90
2018-07-02T05:38:17.584Z,99.90
2018-07-02T05:40:45.169Z,99.90
2018-07-02T05:43:12.744Z,99.90
2018-07-02T05:45:40.308Z,99.90
2018-07-02T05:48:07.865Z,99.90
2018-07-02T05:50:35.415Z,99.90
2018-07-02T05:53:02.987Z,99.90
2018-07-02T05:55:30.727Z,99.90
2018-07-02T05:57:58.095Z,99.90
2018-07-02T06:00:25.689Z,99.90
2018-07-02T06:02:53.210Z,99.90
2018-07-02T06:05:20.796Z,99.90
2018-07-02T06:07:48.576Z,99.90
2018-07-02T06:10:16.000Z,99.90
2018-07-02T06:12:43.564Z,99.90
2018-07-02T06:15:11.095Z,99.90
2018-07-02T06:17:38.616Z,99.90
2018-07-02T06:20:06.472Z,99.90
2018-07-02T06:22:34.010Z,99.90
2018-07-02T06:25:01.517Z,99.90
2018-07-02T06:27:29.100Z,99.90
2018-07-02T06:29:56.636Z,99.90
2018-07-02T06:32:24.187Z,99.90
2018-07-02T06:37:19.164Z,99.90
2018-07-02T06:39:46.694Z,99.90
2018-07-02T06:42:14.232Z,99.90
2018-07-02T06:44:41.780Z,99.90
2018-07-02T06:47:09.284Z,99.90
2018-07-02T06:49:36.789Z,99.90
2018-07-02T06:52:04.319Z,99.90
2018-07-02T06:54:31.837Z,99.90
2018-07-02T06:56:59.407Z,99.90
2018-07-02T06:59:26.913Z,99.90
2018-07-02T07:01:54.421Z,99.90
2018-07-02T07:04:21.984Z,99.90
2018-07-02T07:06:49.597Z,99.90
2018-07-02T07:09:17.128Z,99.90
2018-07-02T07:11:44.664Z,99.90
2018-07-02T07:14:12.220Z,99.90
2018-07-02T07:16:39.808Z,99.90
2018-07-02T07:19:07.355Z,99.90
2018-07-02T07:21:34.897Z,99.90
2018-07-02T07:24:02.460Z,99.90
2018-07-02T07:26:30.020Z,99.90
2018-07-02T07:28:57.571Z,99.90
2018-07-02T07:31:25.136Z,99.90
2018-07-02T07:33:52.737Z,99.90
2018-07-02T07:36:20.344Z,99.00
2018-07-02T07:38:47.888Z,98.90
2018-07-02T07:41:15.399Z,98.40
2018-07-02T07:43:42.952Z,98.70
2018-07-02T07:46:10.560Z,98.80
2018-07-02T07:48:38.137Z,98.60
2018-07-02T07:51:05.746Z,97.80
2018-07-02T07:53:33.322Z,97.50
2018-07-02T07:56:00.940Z,97.60
2018-07-02T07:58:28.508Z,96.60
2018-07-02T08:00:56.131Z,96.30
2018-07-02T08:03:23.678Z,97.50
2018-07-02T08:05:51.321Z,97.20
2018-07-02T08:08:18.841Z,96.20
2018-07-02T08:10:46.562Z,95.10
2018-07-02T08:13:14.136Z,95.20
2018-07-02T08:15:41.708Z,93.70
2018-07-02T08:18:09.245Z,95.90
2018-07-02T08:20:36.821Z,93.60
2018-07-02T08:23:04.416Z,94.40
2018-07-02T08:25:31.973Z,92.30
2018-07-02T08:27:59.520Z,93.60
2018-07-02T08:30:27.221Z,90.70
2018-07-02T08:32:54.800Z,91.80
2018-07-02T08:35:22.293Z,91.40
2018-07-02T08:37:49.807Z,88.40
2018-07-02T08:40:17.586Z,88.60
2018-07-02T08:42:45.140Z,88.00
2018-07-02T08:45:12.663Z,88.80
2018-07-02T08:47:40.176Z,87.00
2018-07-02T08:50:07.809Z,84.80
2018-07-02T08:52:35.308Z,86.20
2018-07-02T08:55:02.889Z,83.80
2018-07-02T08:57:30.436Z,85.70
2018-07-02T08:59:57.961Z,84.70
2018-07-02T09:02:25.480Z,84.80
2018-07-02T09:04:52.993Z,85.00
2018-07-02T09:07:20.519Z,82.20
2018-07-02T09:09:48.008Z,80.00
2018-07-02T09:12:15.525Z,77.50
2018-07-02T09:14:43.083Z,75.80
2018-07-02T09:17:10.619Z,78.00
2018-07-02T09:19:38.179Z,78.70
2018-07-02T09:22:05.809Z,73.70
2018-07-02T09:24:33.353Z,71.20
2018-07-02T09:27:00.923Z,73.70
2018-07-02T09:29:28.563Z,70.20
2018-07-02T09:31:56.181Z,66.30
2018-07-02T09:34:24.080Z,70.70
2018-07-02T09:36:51.648Z,71.90
2018-07-02T09:39:19.355Z,66.90
2018-07-02T09:41:46.848Z,67.40
2018-07-02T09:44:14.424Z,66.90
2018-07-02T09:46:41.954Z,64.80
2018-07-02T09:49:09.529Z,62.40
2018-07-02T09:51:37.061Z,66.60
2018-07-02T09:54:04.888Z,63.10
2018-07-02T09:56:32.630Z,61.30
2018-07-02T09:59:00.238Z,61.60
2018-07-02T10:01:27.762Z,61.30
2018-07-02T10:03:55.374Z,61.60
2018-07-02T10:06:23.190Z,61.50
2018-07-02T10:08:50.869Z,61.10
2018-07-02T10:11:18.416Z,60.30
2018-07-02T10:13:46.013Z,60.00
2018-07-02T10:16:13.548Z,59.90
2018-07-02T10:18:41.144Z,58.70
2018-07-02T10:21:08.833Z,57.70
2018-07-02T10:23:37.337Z,57.60
2018-07-02T10:26:04.009Z,57.20
2018-07-02T10:28:31.920Z,55.40
2018-07-02T10:30:59.663Z,54.30
2018-07-02T10:33:27.188Z,56.30
2018-07-02T10:35:54.769Z,56.30
2018-07-02T10:38:22.360Z,56.30
2018-07-02T10:40:49.993Z,58.30
2018-07-02T10:45:45.042Z,58.80
2018-07-02T10:48:12.580Z,57.30
2018-07-02T10:50:40.123Z,54.50
2018-07-02T10:53:07.648Z,55.90
2018-07-02T10:55:35.265Z,53.90
2018-07-02T10:58:02.915Z,54.10
2018-07-02T11:00:30.481Z,54.90
2018-07-02T11:02:58.037Z,55.20
2018-07-02T11:05:25.588Z,55.20
2018-07-02T11:07:53.141Z,54.20
2018-07-02T11:10:20.693Z,57.50
2018-07-02T11:12:48.248Z,57.20
2018-07-02T11:15:15.806Z,55.00
2018-07-02T11:17:43.372Z,52.90
2018-07-02T11:20:10.912Z,51.30
2018-07-02T11:22:38.558Z,54.10
2018-07-02T11:25:06.103Z,53.70
2018-07-02T11:27:33.639Z,53.80
2018-07-02T11:32:28.674Z,50.90
2018-07-02T11:34:56.189Z,51.50
2018-07-02T11:37:23.754Z,50.50
2018-07-02T11:39:51.248Z,52.20
2018-07-02T11:42:18.787Z,47.60
2018-07-02T11:44:46.303Z,50.40
2018-07-02T11:47:13.803Z,49.20
2018-07-02T11:52:08.824Z,52.50
2018-07-02T11:54:36.371Z,48.30
2018-07-02T11:57:03.940Z,50.90
2018-07-02T11:59:31.565Z,46.60
2018-07-02T12:01:59.136Z,47.90
2018-07-02T12:04:26.777Z,48.40
2018-07-02T12:06:54.298Z,48.80
2018-07-02T12:09:21.888Z,47.80
2018-07-02T12:11:49.428Z,47.90
2018-07-02T12:14:17.032Z,48.50
2018-07-02T12:16:44.567Z,47.80
2018-07-02T12:19:12.085Z,47.90
2018-07-02T12:21:39.627Z,48.30
2018-07-02T12:24:07.202Z,48.40
2018-07-02T12:26:34.993Z,47.30
2018-07-02T12:29:02.557Z,46.50
2018-07-02T12:31:30.213Z,46.30
2018-07-02T12:33:57.756Z,46.30
2018-07-02T12:36:25.316Z,45.50
2018-07-02T12:38:52.863Z,45.80
2018-07-02T12:41:20.525Z,45.20
2018-07-02T12:43:48.076Z,44.70
2018-07-02T12:46:15.638Z,45.00
2018-07-02T12:48:43.195Z,46.20
2018-07-02T12:51:10.775Z,45.90
2018-07-02T12:53:38.309Z,47.10
2018-07-02T12:56:05.877Z,45.20
2018-07-02T12:58:33.451Z,44.70
2018-07-02T13:01:01.000Z,43.90
2018-07-02T13:03:28.563Z,43.10
2018-07-02T13:05:56.197Z,45.30
2018-07-02T13:08:23.759Z,44.60
2018-07-02T13:10:51.294Z,44.00
2018-07-02T13:15:46.328Z,44.90
2018-07-02T13:18:13.886Z,43.60
2018-07-02T13:20:41.486Z,43.60
2018-07-02T13:23:09.057Z,44.00
2018-07-02T13:25:36.622Z,41.60
2018-07-02T13:28:04.190Z,41.60
2018-07-02T13:31:34.866Z,42.20
2018-07-02T13:34:02.441Z,43.20
2018-07-02T13:36:29.975Z,41.30
2018-07-02T13:38:57.568Z,42.00
2018-07-02T13:41:25.136Z,41.50
2018-07-02T13:43:53.102Z,41.30
2018-07-02T13:46:20.633Z,40.80
2018-07-02T13:48:48.500Z,41.50
2018-07-02T13:51:16.146Z,40.90
2018-07-02T13:53:43.759Z,40.30
2018-07-02T13:56:11.361Z,39.70
2018-07-02T14:01:07.800Z,41.60
2018-07-02T14:03:35.359Z,39.30
2018-07-02T14:06:02.913Z,39.30
2018-07-02T14:08:30.483Z,41.40
2018-07-02T14:10:58.065Z,40.40
2018-07-02T14:13:25.592Z,38.50
2018-07-02T14:15:53.259Z,39.10
2018-07-02T14:18:20.823Z,39.60
2018-07-02T14:20:48.572Z,39.50
2018-07-02T14:23:16.156Z,39.60
2018-07-02T14:25:43.725Z,39.40
2018-07-02T14:30:38.840Z,38.30
2018-07-02T14:33:06.454Z,41.30
2018-07-02T14:35:33.956Z,39.90
2018-07-02T14:38:01.492Z,39.70
2018-07-02T14:40:29.055Z,40.20
2018-07-02T14:42:56.592Z,38.60
2018-07-02T14:45:24.386Z,38.50
2018-07-02T14:47:51.783Z,39.10
2018-07-02T14:50:19.361Z,39.60
2018-07-02T14:52:46.907Z,39.00
2018-07-02T14:55:14.448Z,39.50
2018-07-02T14:57:42.045Z,40.10
2018-07-02T15:00:09.649Z,41.50
2018-07-02T15:02:37.283Z,38.60
2018-07-02T15:05:05.384Z,39.60
2018-07-02T15:07:32.947Z,39.80
2018-07-02T15:10:00.494Z,39.60
2018-07-02T15:12:28.926Z,39.80
2018-07-02T15:14:56.477Z,40.20
2018-07-02T15:20:55.226Z,39.30
2018-07-02T15:23:22.764Z,38.10
2018-07-02T15:25:50.296Z,39.30
2018-07-02T15:28:17.874Z,39.70
2018-07-02T15:30:45.425Z,40.30
2018-07-02T15:33:12.964Z,38.10
2018-07-02T15:35:40.567Z,37.90
2018-07-02T15:38:08.125Z,38.60
2018-07-02T15:40:35.649Z,38.30
2018-07-02T15:43:03.268Z,37.90
2018-07-02T15:45:30.832Z,40.40
2018-07-02T15:47:58.372Z,39.10
2018-07-02T15:50:25.913Z,39.20
2018-07-02T15:52:54.667Z,38.10
2018-07-02T15:55:22.272Z,39.60
2018-07-02T15:57:49.843Z,38.80
2018-07-02T16:00:17.420Z,38.70
2018-07-02T16:02:44.958Z,37.50
2018-07-02T16:05:12.865Z,37.40
2018-07-02T16:07:40.457Z,38.40
2018-07-02T16:10:08.060Z,38.90
2018-07-02T16:12:35.624Z,37.60
2018-07-02T16:17:30.810Z,37.60
2018-07-02T16:19:58.380Z,36.80
2018-07-02T16:22:26.194Z,39.00
2018-07-02T16:24:53.869Z,38.90
2018-07-02T16:27:21.413Z,39.50
2018-07-02T16:29:48.997Z,38.70
2018-07-02T16:32:16.595Z,41.20
2018-07-02T16:34:44.170Z,38.70
2018-07-02T16:37:11.728Z,37.80
2018-07-02T16:39:39.285Z,37.80
2018-07-02T16:42:06.881Z,37.10
2018-07-02T16:44:34.420Z,37.70
2018-07-02T16:47:01.988Z,40.10
2018-07-02T16:49:29.547Z,38.50
2018-07-02T16:51:57.109Z,37.80
2018-07-02T16:54:24.652Z,37.50
2018-07-02T16:56:52.350Z,38.50
2018-07-02T16:59:19.945Z,40.30
2018-07-02T17:01:47.593Z,40.80
2018-07-02T17:04:15.116Z,41.60
2018-07-02T17:06:42.749Z,40.60
2018-07-02T17:11:39.737Z,42.70
2018-07-02T17:14:07.384Z,40.00
2018-07-02T17:16:35.007Z,41.70
2018-07-02T17:19:02.569Z,40.20
2018-07-02T17:21:30.156Z,41.40
2018-07-02T17:23:57.664Z,42.90
2018-07-02T17:26:25.605Z,41.20
2018-07-02T17:28:53.121Z,40.50
2018-07-02T17:31:20.664Z,41.30
2018-07-02T17:33:48.263Z,43.30
2018-07-02T17:36:15.789Z,40.70
2018-07-02T17:38:43.345Z,41.40
2018-07-02T17:41:10.855Z,42.50
2018-07-02T17:43:38.388Z,42.90
2018-07-02T17:46:05.967Z,44.60
2018-07-02T17:48:33.517Z,43.80
2018-07-02T17:51:01.104Z,44.50
2018-07-02T17:53:28.713Z,44.70
2018-07-02T17:55:56.245Z,46.70
2018-07-02T17:58:23.811Z,46.00
2018-07-02T18:00:51.336Z,47.90
2018-07-02T18:03:18.932Z,47.90
2018-07-02T18:05:46.541Z,43.80
2018-07-02T18:08:14.080Z,47.20
2018-07-02T18:10:41.681Z,50.20
2018-07-02T18:13:09.213Z,53.60
2018-07-02T18:15:36.809Z,59.20
2018-07-02T18:18:04.413Z,61.40
2018-07-02T18:22:59.461Z,62.70
2018-07-02T18:25:27.028Z,64.90
2018-07-02T18:27:54.560Z,69.80
2018-07-02T18:30:22.138Z,73.00
2018-07-02T18:32:49.736Z,76.30
2018-07-02T18:35:17.309Z,77.70
2018-07-02T18:37:44.852Z,82.60
2018-07-02T18:40:12.386Z,88.30
2018-07-02T18:42:39.964Z,86.60
2018-07-02T18:45:07.643Z,88.90
2018-07-02T18:47:35.200Z,90.00
2018-07-02T18:50:02.845Z,89.80
2018-07-02T18:52:30.682Z,90.50
2018-07-02T18:54:58.948Z,91.50
2018-07-02T18:57:26.521Z,92.10
2018-07-02T18:59:54.095Z,91.80
2018-07-02T19:02:21.628Z,93.80
2018-07-02T19:04:49.168Z,96.10
2018-07-02T19:07:16.720Z,96.80
2018-07-02T19:09:44.333Z,98.50
2018-07-02T19:12:12.041Z,99.10
2018-07-02T19:14:39.560Z,98.20
2018-07-02T19:17:07.249Z,99.30
2018-07-02T19:19:34.781Z,99.90
2018-07-02T19:22:02.444Z,99.90
2018-07-02T19:24:30.051Z,99.90
2018-07-02T19:26:57.627Z,99.90
2018-07-02T19:29:25.180Z,99.90
2018-07-02T19:31:52.736Z,99.90
2018-07-02T19:36:47.828Z,99.90
2018-07-02T19:39:15.467Z,99.90
2018-07-02T19:41:42.971Z,99.90
2018-07-02T19:44:11.265Z,99.90
2018-07-02T19:46:38.911Z,99.90
2018-07-02T19:49:06.524Z,99.90
2018-07-02T19:51:34.050Z,99.90
2018-07-02T19:54:02.036Z,99.90
2018-07-02T19:56:29.582Z,99.90
2018-07-02T19:58:57.080Z,99.90
2018-07-02T20:01:24.605Z,99.90
2018-07-02T20:03:52.144Z,99.90
2018-07-02T20:06:19.692Z,99.90
2018-07-02T20:08:47.217Z,99.90
2018-07-02T20:11:14.734Z,99.90
2018-07-02T20:13:42.275Z,99.90
2018-07-02T20:16:09.839Z,99.90
2018-07-02T20:18:37.440Z,99.90
2018-07-02T20:21:04.986Z,99.90
2018-07-02T20:23:32.529Z,99.90
2018-07-02T20:26:00.061Z,99.90
2018-07-02T20:28:27.612Z,99.90
2018-07-02T20:30:55.136Z,99.90
2018-07-02T20:33:22.625Z,99.90
2018-07-02T20:38:17.653Z,99.90
2018-07-02T20:40:45.162Z,99.90
2018-07-02T20:45:40.136Z,99.90
2018-07-02T20:48:07.708Z,99.90
2018-07-02T20:50:35.255Z,99.90
2018-07-02T20:53:02.813Z,99.90
2018-07-02T20:55:30.346Z,99.90
2018-07-02T20:57:58.012Z,99.90
2018-07-02T21:00:29.193Z,99.90
2018-07-02T21:02:57.284Z,99.90
2018-07-02T21:05:24.814Z,99.90
2018-07-02T21:07:52.358Z,99.90
2018-07-02T21:10:19.919Z,99.90
2018-07-02T21:12:47.456Z,99.90
2018-07-02T21:15:15.077Z,99.90
2018-07-02T21:17:42.633Z,99.90
2018-07-02T21:20:10.187Z,99.90
2018-07-02T21:22:37.732Z,99.90
2018-07-02T21:25:05.413Z,99.90
2018-07-02T21:27:32.953Z,99.90
2018-07-02T21:30:00.549Z,99.90
2018-07-02T21:32:28.125Z,99.90
2018-07-02T21:34:55.645Z,99.90
2018-07-02T21:37:23.172Z,99.90
2018-07-02T21:39:50.684Z,99.90
2018-07-02T21:42:18.284Z,99.90
2018-07-02T21:44:45.766Z,99.90
2018-07-02T21:47:13.305Z,99.90
2018-07-02T21:49:40.808Z,99.90
2018-07-02T21:52:08.303Z,99.90
2018-07-02T21:54:35.845Z,99.90
2018-07-02T21:57:03.399Z,99.90
2018-07-02T21:59:30.928Z,99.90
2018-07-02T22:01:58.458Z,99.90
2018-07-02T22:04:26.012Z,99.90
2018-07-02T22:06:53.520Z,99.90
2018-07-02T22:09:21.076Z,99.90
2018-07-02T22:11:48.680Z,99.90
2018-07-02T22:14:16.268Z,99.90
2018-07-02T22:16:43.780Z,99.90
2018-07-02T22:19:11.329Z,99.90
2018-07-02T22:21:38.844Z,99.90
2018-07-02T22:24:06.384Z,99.90
2018-07-02T22:26:35.569Z,99.90
2018-07-02T22:29:03.192Z,99.90
2018-07-02T22:31:30.710Z,99.90
2018-07-02T22:33:58.259Z,99.90
2018-07-02T22:36:25.804Z,99.90
2018-07-02T22:38:53.329Z,99.90
2018-07-02T22:41:20.840Z,99.90
2018-07-02T22:43:48.387Z,99.90
2018-07-02T22:46:15.900Z,99.90
2018-07-02T22:48:43.409Z,99.90
2018-07-02T22:51:10.960Z,99.90
2018-07-02T22:53:38.492Z,99.90
2018-07-02T22:56:06.049Z,99.90
2018-07-02T22:58:33.588Z,99.90
2018-07-02T23:01:01.522Z,99.90
2018-07-02T23:03:29.052Z,99.90
2018-07-02T23:05:56.952Z,99.90
2018-07-02T23:08:25.508Z,99.90
2018-07-02T23:10:53.088Z,99.90
2018-07-02T23:13:20.592Z,99.90
2018-07-02T23:15:48.136Z,99.90
2018-07-02T23:18:15.676Z,99.90
2018-07-02T23:20:43.196Z,99.90
2018-07-02T23:23:10.700Z,99.90
2018-07-02T23:25:38.225Z,99.90
2018-07-02T23:28:05.902Z,99.90
2018-07-02T23:30:33.568Z,99.90
2018-07-02T23:33:01.096Z,99.90
2018-07-02T23:35:28.703Z,99.90
2018-07-02T23:37:56.161Z,99.90
2018-07-02T23:40:24.592Z,99.90
2018-07-02T23:42:53.195Z,99.90
2018-07-02T23:45:21.557Z,99.90
2018-07-02T23:47:49.207Z,99.90
2018-07-02T23:50:16.809Z,99.90
2018-07-02T23:52:44.328Z,99.90
2018-07-02T23:55:11.950Z,99.90
2018-07-02T23:57:39.515Z,99.90
